Kaharoa — ZM7552 — position and weather

sailwx.info

Track history (hours):
 
Tides and Currents Weather Stations Pressure Air Temp Water Temp Dewpoint Dewpoint Depression Visibility Wind Speed Wind Dir Waves Ship Positions

Oceanographic research ship Kaharoa (New Zealand)

Detailed information on ship capabilities available from University of Delaware's Ocean Information Center.

Last reported at 2018-Mar-21 17:00 UTC. Time now 2018-Apr-23 19:10 UTC.
Position S 41°12' E 176°00'.
Warning: this ship's position is 33 days out of date.

Length 28 m; draft 3.5 m.

Type: Fishing. MMSI: 512063000.

Wind from 220 at 28 knots

Barometer 1019.2 mb
Air temperature 16.1 ° C
Visibility: greater than 0.5 NM
Dewpoint 14.9 ° C
Water temperature 17.4 ° C

Date/timePositionNaut miles runAvg speedWind from/ knotsBaromVisibWave heightAir tempDewpointWater temp
2018-Mar-21 17:00S 41°12' E 176°00'229 9.6 220 / 281019.2 0.5 16.114.917.4
2018-Mar-20 17:00S 37°54' E 178°30'107 7.2 150 / 91025.6 5.4 19.215.919.8
2018-Mar-20 02:11S 37°33' E 176°17'2 8.9
2018-Mar-20 02:00S 37°34' E 176°15'4 8.6
2018-Mar-20 01:30S 37°36' E 176°11'3 5.4
2018-Mar-20 00:59S 37°39' E 176°11'0 0.0
2018-Mar-20 00:29S 37°39' E 176°11'0 0.0
2018-Mar-19 23:59S 37°39' E 176°11'0 0.0
2018-Mar-19 23:29S 37°39' E 176°11'0 0.0
2018-Mar-19 22:59S 37°39' E 176°11'0 0.0
2018-Mar-19 22:29S 37°39' E 176°11'0 0.0
2018-Mar-19 21:59S 37°39' E 176°11'0 0.0
2018-Mar-19 21:29S 37°39' E 176°11'0 0.0
2018-Mar-19 20:59S 37°39' E 176°11'0 0.0
2018-Mar-19 20:29S 37°39' E 176°11'0 0.0
2018-Mar-19 19:59S 37°39' E 176°11'0 0.0
2018-Mar-19 19:29S 37°39' E 176°11'0 0.0
2018-Mar-19 18:59S 37°39' E 176°11'0 0.0
2018-Mar-19 18:29S 37°39' E 176°11'0 0.0
2018-Mar-19 17:59S 37°39' E 176°11'0 0.0
2018-Mar-19 17:29S 37°39' E 176°11'0 0.0
2018-Mar-19 16:59S 37°39' E 176°11'0 0.0
2018-Mar-19 16:29S 37°39' E 176°11'0 0.0
2018-Mar-19 15:59S 37°39' E 176°11'0 0.0
2018-Mar-19 15:29S 37°39' E 176°11'0 0.0
2018-Mar-19 14:59S 37°39' E 176°11'0 0.0
2018-Mar-19 14:29S 37°39' E 176°11'0 0.0
2018-Mar-19 13:59S 37°39' E 176°11'0 0.0
2018-Mar-19 13:29S 37°39' E 176°11'0 0.0
2018-Mar-19 12:59S 37°39' E 176°11'0 0.0
2018-Mar-19 12:29S 37°39' E 176°11'0 0.0
2018-Mar-19 11:59S 37°39' E 176°11'0 0.0
2018-Mar-19 11:29S 37°39' E 176°11'0 0.0
2018-Mar-19 10:59S 37°39' E 176°11'0 0.0
2018-Mar-19 10:29S 37°39' E 176°11'0 0.0
2018-Mar-19 09:59S 37°39' E 176°11'0 0.0
2018-Mar-19 09:29S 37°39' E 176°11'0 0.0
2018-Mar-19 08:59S 37°39' E 176°11'0 0.0
2018-Mar-19 08:29S 37°39' E 176°11'0 0.0
2018-Mar-19 07:59S 37°39' E 176°11'0 0.0
2018-Mar-19 07:29S 37°39' E 176°11'0 0.0
2018-Mar-19 07:00S 37°39' E 176°11'0 0.0
2018-Mar-19 06:31S 37°39' E 176°11'0 0.0
2018-Mar-19 06:01S 37°39' E 176°11'0 0.0
2018-Mar-19 05:30S 37°39' E 176°11'0 0.0
2018-Mar-19 05:00S 37°39' E 176°11'0 0.0
2018-Mar-19 04:29S 37°39' E 176°11'0 0.0
2018-Mar-19 04:00S 37°39' E 176°11'0 0.0
2018-Mar-19 03:31S 37°39' E 176°11'2 4.3
2018-Mar-19 03:01S 37°37' E 176°10'4 7.5
2018-Mar-19 02:30S 37°37' E 176°15'  
2018-Mar-15 02:32S 36°20' E 176°10'0 0.2
2018-Mar-15 02:30S 36°20' E 176°10'4 7.8
2018-Mar-15 02:00S 36°16' E 176°11'2 3.2
2018-Mar-15 01:21S 36°14' E 176°13'1 2.2
2018-Mar-15 00:58S 36°13' E 176°13'22 1.2
2018-Mar-14 07:11S 36°32' E 175°57'1 6.5
2018-Mar-14 07:00S 36°33' E 175°56'16 0.3
2018-Mar-12 06:59S 36°43' E 175°41'0 0.0
2018-Mar-12 05:05S 36°43' E 175°41'0 0.0
2018-Mar-12 04:56S 36°43' E 175°41'  
Track history (hours):
 
Tides and Currents Weather Stations Pressure Air Temp Water Temp Dewpoint Dewpoint Depression Visibility Wind Speed Wind Dir Waves Ship Positions

Oceanographic research ship Kaharoa (New Zealand)

Detailed information on ship capabilities available from University of Delaware's Ocean Information Center.

Last reported at 2018-Mar-21 17:00 UTC. Time now 2018-Apr-23 19:10 UTC.
Position S 41°12' E 176°00'.
Warning: this ship's position is 33 days out of date.

Length 28 m; draft 3.5 m.

Type: Fishing. MMSI: 512063000.

Wind from 220 at 28 knots

Barometer 1019.2 mb
Air temperature 16.1 ° C
Visibility: greater than 0.5 NM
Dewpoint 14.9 ° C
Water temperature 17.4 ° C

Date/timePositionNaut miles runAvg speedWind from/ knotsBaromVisibWave heightAir tempDewpointWater temp
2018-Mar-21 17:00S 41°12' E 176°00'229 9.6 220 / 281019.2 0.5 16.114.917.4
2018-Mar-20 17:00S 37°54' E 178°30'107 7.2 150 / 91025.6 5.4 19.215.919.8
2018-Mar-20 02:11S 37°33' E 176°17'2 8.9
2018-Mar-20 02:00S 37°34' E 176°15'4 8.6
2018-Mar-20 01:30S 37°36' E 176°11'3 5.4
2018-Mar-20 00:59S 37°39' E 176°11'0 0.0
2018-Mar-20 00:29S 37°39' E 176°11'0 0.0
2018-Mar-19 23:59S 37°39' E 176°11'0 0.0
2018-Mar-19 23:29S 37°39' E 176°11'0 0.0
2018-Mar-19 22:59S 37°39' E 176°11'0 0.0
2018-Mar-19 22:29S 37°39' E 176°11'0 0.0
2018-Mar-19 21:59S 37°39' E 176°11'0 0.0
2018-Mar-19 21:29S 37°39' E 176°11'0 0.0
2018-Mar-19 20:59S 37°39' E 176°11'0 0.0
2018-Mar-19 20:29S 37°39' E 176°11'0 0.0
2018-Mar-19 19:59S 37°39' E 176°11'0 0.0
2018-Mar-19 19:29S 37°39' E 176°11'0 0.0
2018-Mar-19 18:59S 37°39' E 176°11'0 0.0
2018-Mar-19 18:29S 37°39' E 176°11'0 0.0
2018-Mar-19 17:59S 37°39' E 176°11'0 0.0
2018-Mar-19 17:29S 37°39' E 176°11'0 0.0
2018-Mar-19 16:59S 37°39' E 176°11'0 0.0
2018-Mar-19 16:29S 37°39' E 176°11'0 0.0
2018-Mar-19 15:59S 37°39' E 176°11'0 0.0
2018-Mar-19 15:29S 37°39' E 176°11'0 0.0
2018-Mar-19 14:59S 37°39' E 176°11'0 0.0
2018-Mar-19 14:29S 37°39' E 176°11'0 0.0
2018-Mar-19 13:59S 37°39' E 176°11'0 0.0
2018-Mar-19 13:29S 37°39' E 176°11'0 0.0
2018-Mar-19 12:59S 37°39' E 176°11'0 0.0
2018-Mar-19 12:29S 37°39' E 176°11'0 0.0
2018-Mar-19 11:59S 37°39' E 176°11'0 0.0
2018-Mar-19 11:29S 37°39' E 176°11'0 0.0
2018-Mar-19 10:59S 37°39' E 176°11'0 0.0
2018-Mar-19 10:29S 37°39' E 176°11'0 0.0
2018-Mar-19 09:59S 37°39' E 176°11'0 0.0
2018-Mar-19 09:29S 37°39' E 176°11'0 0.0
2018-Mar-19 08:59S 37°39' E 176°11'0 0.0
2018-Mar-19 08:29S 37°39' E 176°11'0 0.0
2018-Mar-19 07:59S 37°39' E 176°11'0 0.0
2018-Mar-19 07:29S 37°39' E 176°11'0 0.0
2018-Mar-19 07:00S 37°39' E 176°11'0 0.0
2018-Mar-19 06:31S 37°39' E 176°11'0 0.0
2018-Mar-19 06:01S 37°39' E 176°11'0 0.0
2018-Mar-19 05:30S 37°39' E 176°11'0 0.0
2018-Mar-19 05:00S 37°39' E 176°11'0 0.0
2018-Mar-19 04:29S 37°39' E 176°11'0 0.0
2018-Mar-19 04:00S 37°39' E 176°11'0 0.0
2018-Mar-19 03:31S 37°39' E 176°11'2 4.3
2018-Mar-19 03:01S 37°37' E 176°10'4 7.5
2018-Mar-19 02:30S 37°37' E 176°15'  
2018-Mar-15 02:32S 36°20' E 176°10'0 0.2
2018-Mar-15 02:30S 36°20' E 176°10'4 7.8
2018-Mar-15 02:00S 36°16' E 176°11'2 3.2
2018-Mar-15 01:21S 36°14' E 176°13'1 2.2
2018-Mar-15 00:58S 36°13' E 176°13'22 1.2
2018-Mar-14 07:11S 36°32' E 175°57'1 6.5
2018-Mar-14 07:00S 36°33' E 175°56'16 0.3
2018-Mar-12 06:59S 36°43' E 175°41'0 0.0
2018-Mar-12 05:05S 36°43' E 175°41'0 0.0
2018-Mar-12 04:56S 36°43' E 175°41'  

Dump ship's entire track history